Time;durP1;ratioP1;P1;durP2;ratioP2;P2;SDS_P1;SDS_P2;PMS_P1;PMS_P2;Temp;Humidity;BMP_temperature;BMP_pressure;BME280_temperature;BME280_humidity;BME280_pressure;Samples;Min_cycle;Max_cycle;Signal;HPM_P1;HPM_P2
2023/06/03 00:00:52;;;;;;;8.95;8.15;;;;;;;30.58;54.52;100820.78;5113311;27;65998;-41
2023/06/03 00:03:23;;;;;;;8.77;8.00;;;;;;;30.46;54.97;100814.44;5109742;27;70541;-42
2023/06/03 00:05:54;;;;;;;7.47;6.97;;;;;;;30.64;55.23;100833.44;5114145;27;66349;-41
2023/06/03 00:08:25;;;;;;;8.70;8.00;;;;;;;30.65;55.43;100832.41;5110549;27;70304;-42
2023/06/03 00:10:56;;;;;;;10.65;7.20;;;;;;;30.69;55.18;100840.91;5109898;27;65598;-41
2023/06/03 00:13:27;;;;;;;9.10;7.93;;;;;;;30.67;55.90;100838.44;5114025;27;69822;-45
2023/06/03 00:15:58;;;;;;;11.65;7.63;;;;;;;30.75;56.18;100844.63;5105501;27;66698;-41
2023/06/03 00:18:29;;;;;;;7.72;6.97;;;;;;;30.77;56.33;100837.13;5106838;27;70415;-41
2023/06/03 00:21:01;;;;;;;11.40;7.40;;;;;;;30.80;56.16;100825.88;5112660;27;66678;-42
2023/06/03 00:23:33;;;;;;;7.95;7.15;;;;;;;30.84;56.77;100837.91;5092619;27;70807;-41
2023/06/03 00:26:04;;;;;;;8.13;7.13;;;;;;;30.92;57.49;100834.91;5107233;27;66666;-45
2023/06/03 00:28:35;;;;;;;31.08;11.77;;;;;;;31.01;69.26;100844.44;5109044;27;70185;-42
2023/06/03 00:31:05;;;;;;;27.00;12.07;;;;;;;31.09;71.67;100846.88;5111255;27;66242;-43
2023/06/03 00:33:36;;;;;;;26.08;11.93;;;;;;;30.88;73.88;100809.34;5106463;27;70033;-44
2023/06/03 00:36:07;;;;;;;22.73;11.57;;;;;;;31.15;74.17;100845.16;5095992;27;66061;-42
2023/06/03 00:38:37;;;;;;;15.55;11.60;;;;;;;30.98;74.94;100823.22;5109905;27;69011;-43
2023/06/03 00:41:08;;;;;;;17.60;10.88;;;;;;;30.59;74.01;100743.97;5109744;27;66009;-43
2023/06/03 00:43:39;;;;;;;11.52;8.75;;;;;;;31.22;69.38;100845.91;5108049;27;68301;-45
2023/06/03 00:46:10;;;;;;;9.48;8.10;;;;;;;31.25;68.68;100834.59;5110178;27;66570;-44
2023/06/03 00:48:41;;;;;;;8.38;7.63;;;;;;;31.27;68.56;100837.94;5113197;27;69533;-42
2023/06/03 00:51:13;;;;;;;11.90;7.90;;;;;;;31.31;68.36;100833.69;5110698;27;66539;-44
2023/06/03 00:53:44;;;;;;;9.50;8.38;;;;;;;31.33;68.11;100837.03;5109557;27;70272;-43
2023/06/03 00:56:19;;;;;;;10.80;8.85;;;;;;;31.28;67.76;100817.91;5108614;27;65734;-43
2023/06/03 00:58:50;;;;;;;11.40;8.05;;;;;;;31.39;67.86;100836.16;5110356;27;69832;-43
2023/06/03 01:01:21;;;;;;;11.73;8.00;;;;;;;31.44;67.87;100827.34;5103521;27;66212;-44
2023/06/03 01:03:52;;;;;;;14.05;7.95;;;;;;;31.46;67.88;100836.09;5116066;27;69644;-45
2023/06/03 01:06:45;;;;;;;10.50;8.23;;;;;;;30.56;72.16;100711.06;5101801;27;66751;-44
2023/06/03 01:09:24;;;;;;;15.50;9.80;;;;;;;31.49;73.15;100851.91;5111760;27;70541;-44
2023/06/03 01:12:01;;;;;;;20.23;9.73;;;;;;;31.48;73.87;100861.09;5107956;27;66584;-45
2023/06/03 01:14:55;;;;;;;9.70;8.70;;;;;;;31.24;73.47;100848.41;5108318;27;70235;-44
2023/06/03 01:17:35;;;;;;;11.18;8.88;;;;;;;30.90;73.80;100766.63;5110408;27;64147;-44
2023/06/03 01:20:10;;;;;;;10.30;8.10;;;;;;;31.01;73.88;100778.56;5103086;27;70291;-44
2023/06/03 01:22:44;;;;;;;14.50;8.30;;;;;;;30.13;73.84;100630.66;5106299;27;66080;-44
2023/06/03 01:25:20;;;;;;;8.00;7.20;;;;;;;30.69;73.67;100727.19;5109317;27;69742;-43
2023/06/03 01:27:51;;;;;;;10.70;8.10;;;;;;;31.33;73.63;100822.66;5111438;27;65279;-44
2023/06/03 01:30:22;;;;;;;7.88;7.20;;;;;;;31.56;74.26;100859.97;5111537;27;71690;-43
2023/06/03 01:32:53;;;;;;;8.45;6.82;;;;;;;31.60;73.85;100844.91;5106860;27;65116;-44
2023/06/03 01:35:25;;;;;;;11.20;7.30;;;;;;;31.59;74.94;100857.66;5103611;27;68446;-40
2023/06/03 01:37:57;;;;;;;14.45;7.00;;;;;;;31.51;75.69;100836.25;5103412;27;65886;-42
2023/06/03 01:40:30;;;;;;;11.93;7.15;;;;;;;31.13;76.68;100763.25;5112131;27;70387;-41
2023/06/03 01:43:01;;;;;;;11.43;7.30;;;;;;;31.72;76.51;100866.66;5109237;27;65840;-44
2023/06/03 01:45:32;;;;;;;12.77;7.10;;;;;;;31.41;76.12;100811.53;5099589;27;69643;-43
2023/06/03 01:48:03;;;;;;;12.00;6.53;;;;;;;31.71;76.02;100851.47;5108810;27;66552;-41
2023/06/03 01:50:39;;;;;;;8.43;6.47;;;;;;;31.82;75.77;100858.84;5110702;27;70189;-42
2023/06/03 01:53:13;;;;;;;5.50;5.00;;;;;;;31.88;74.48;100860.63;5089899;27;65887;-44
2023/06/03 01:55:46;;;;;;;4.25;3.95;;;;;;;31.83;73.81;100858.59;5116321;27;70775;-45
2023/06/03 01:58:18;;;;;;;4.70;4.30;;;;;;;31.80;72.83;100861.78;5101663;27;64943;-45
2023/06/03 02:00:49;;;;;;;4.82;4.20;;;;;;;31.91;72.36;100860.22;5106418;27;70278;-44
2023/06/03 02:06:40;;;;;;;6.30;4.43;;;;;;;31.94;71.77;100859.75;5089384;27;69454;-45
2023/06/03 02:09:11;;;;;;;4.50;4.20;;;;;;;31.91;71.45;100838.50;5108633;27;66715;-44
2023/06/03 02:11:45;;;;;;;4.20;3.80;;;;;;;31.80;71.41;100806.69;5112174;27;69303;-44
2023/06/03 02:14:15;;;;;;;4.88;4.50;;;;;;;31.92;71.06;100829.31;5107192;27;66485;-44
2023/06/03 02:16:48;;;;;;;4.28;3.97;;;;;;;32.00;70.83;100837.13;5112937;27;70472;-44
2023/06/03 02:19:28;;;;;;;3.83;3.53;;;;;;;30.81;70.77;100632.53;5114392;27;66910;-44
2023/06/03 02:21:58;;;;;;;4.72;4.00;;;;;;;32.17;70.83;100856.31;5100181;27;68962;-43
2023/06/03 02:24:31;;;;;;;3.70;3.50;;;;;;;32.00;70.53;100828.16;5098083;27;65629;-45
2023/06/03 02:27:03;;;;;;;5.82;3.65;;;;;;;32.22;70.23;100861.88;5109342;27;70036;-47
2023/06/03 02:29:34;;;;;;;4.68;4.28;;;;;;;32.23;70.36;100852.69;5109018;27;65098;-43
2023/06/03 02:32:05;;;;;;;4.70;3.78;;;;;;;32.12;70.46;100828.22;5114104;27;70643;-44
2023/06/03 02:34:36;;;;;;;3.72;3.42;;;;;;;32.05;70.12;100806.59;5098706;27;65676;-45
2023/06/03 02:37:07;;;;;;;4.25;3.88;;;;;;;32.33;70.38;100846.69;5100953;27;70144;-44
2023/06/03 02:39:37;;;;;;;5.53;3.88;;;;;;;32.09;70.08;100812.38;5104722;27;64977;-44
2023/06/03 02:42:09;;;;;;;4.22;3.92;;;;;;;32.26;69.95;100830.53;5110304;27;69127;-44
2023/06/03 02:44:40;;;;;;;4.20;3.90;;;;;;;32.37;69.87;100841.63;5112242;27;67144;-44
2023/06/03 02:47:11;;;;;;;6.35;4.03;;;;;;;32.40;70.06;100847.44;5107767;27;70530;-45
2023/06/03 02:49:44;;;;;;;4.93;4.47;;;;;;;32.43;69.98;100848.84;5108465;27;66713;-45
2023/06/03 02:52:15;;;;;;;4.63;3.58;;;;;;;32.46;69.51;100840.28;5108404;27;70250;-46
2023/06/03 02:54:45;;;;;;;3.95;3.65;;;;;;;32.28;69.59;100814.00;5106602;27;66209;-46
2023/06/03 02:57:16;;;;;;;4.50;3.95;;;;;;;32.05;69.32;100764.00;5106548;27;68823;-45
2023/06/03 02:59:47;;;;;;;3.60;3.33;;;;;;;32.56;69.31;100839.72;5109950;27;65805;-45
2023/06/03 03:02:21;;;;;;;5.47;3.63;;;;;;;32.60;69.25;100846.34;5111766;27;69661;-45
2023/06/03 03:04:53;;;;;;;4.80;3.92;;;;;;;32.58;69.34;100829.44;5117501;27;65922;-45
2023/06/03 03:07:26;;;;;;;4.13;3.72;;;;;;;32.04;69.09;100729.00;5107811;27;69470;-45
2023/06/03 03:09:57;;;;;;;4.20;3.85;;;;;;;32.54;69.26;100820.09;5109524;27;66445;-45
2023/06/03 03:12:31;;;;;;;4.75;3.95;;;;;;;32.66;68.96;100838.09;5110984;27;70853;-45
2023/06/03 03:15:02;;;;;;;4.25;3.80;;;;;;;32.68;68.75;100835.13;5113576;27;66376;-46
2023/06/03 03:17:34;;;;;;;4.22;3.83;;;;;;;32.70;68.62;100822.97;5115313;27;70318;-44
2023/06/03 03:20:07;;;;;;;5.60;3.95;;;;;;;32.73;68.69;100827.09;5093473;27;65896;-45
2023/06/03 03:22:42;;;;;;;;;;;;;;;32.46;69.73;100832.16;5105335;27;68995;-44
2023/06/03 03:25:16;;;;;;;3.65;3.35;;;;;;;32.74;68.62;100822.53;5118417;27;65326;-44
2023/06/03 03:27:48;;;;;;;3.58;3.28;;;;;;;32.73;68.29;100810.78;5115114;27;70190;-44
2023/06/03 03:30:19;;;;;;;;;;;;;;;32.52;69.45;100819.53;5110898;27;66223;-45
2023/06/03 03:32:50;;;;;;;4.05;3.63;;;;;;;32.78;68.35;100812.81;5089650;27;69040;-46
2023/06/03 03:35:22;;;;;;;3.88;3.47;;;;;;;32.83;68.30;100808.34;5121082;27;66280;-44
2023/06/03 03:38:06;;;;;;;4.82;3.85;;;;;;;31.99;68.36;100669.16;5110585;27;70206;-45
2023/06/03 03:40:38;;;;;;;6.05;4.30;;;;;;;32.69;69.26;100786.00;5107455;27;66691;-44
2023/06/03 03:43:15;;;;;;;7.75;4.03;;;;;;;32.70;69.44;100798.50;5110190;27;70003;-45
2023/06/03 03:45:47;;;;;;;16.17;4.70;;;;;;;32.67;69.78;100792.72;5105206;27;66373;-44
2023/06/03 03:48:27;;;;;;;6.63;4.35;;;;;;;32.31;70.01;100740.22;5107797;27;69878;-46
2023/06/03 03:51:01;;;;;;;4.63;4.13;;;;;;;32.65;70.20;100792.13;5107319;27;66977;-44
2023/06/03 03:53:36;;;;;;;10.05;4.55;;;;;;;32.62;70.40;100784.47;5114561;27;70339;-45
2023/06/03 03:56:21;;;;;;;6.32;4.43;;;;;;;32.62;70.17;100790.72;5117301;27;65810;-45
2023/06/03 03:58:58;;;;;;;21.80;4.38;;;;;;;32.64;70.12;100772.28;5115672;27;70572;-44
2023/06/03 04:01:39;;;;;;;5.32;4.10;;;;;;;32.01;69.94;100670.59;5110055;27;66354;-47
2023/06/03 04:04:42;;;;;;;4.03;3.65;;;;;;;31.74;70.29;100631.34;5110099;27;70265;-43
2023/06/03 04:07:20;;;;;;;5.82;4.00;;;;;;;32.00;70.29;100640.97;5106671;27;66655;-44
2023/06/03 04:09:51;;;;;;;7.15;4.30;;;;;;;32.32;70.37;100684.91;5108691;27;70056;-45
2023/06/03 04:12:29;;;;;;;6.20;4.30;;;;;;;31.94;69.90;100622.91;5103688;27;66508;-43
2023/06/03 04:15:02;;;;;;;4.78;4.38;;;;;;;32.68;70.82;100729.19;5123221;27;70468;-45
2023/06/03 04:17:37;;;;;;;4.22;3.83;;;;;;;32.59;71.26;100714.31;5104814;27;66226;-44
2023/06/03 04:20:24;;;;;;;7.88;4.57;;;;;;;32.75;70.97;100731.81;5104345;27;69999;-45
2023/06/03 04:22:54;;;;;;;10.35;4.20;;;;;;;32.80;71.54;100732.75;5108354;27;65698;-42
2023/06/03 04:25:25;;;;;;;7.53;4.18;;;;;;;32.75;71.62;100729.09;5109501;27;69357;-44
2023/06/03 04:27:57;;;;;;;5.80;3.88;;;;;;;32.51;71.35;100673.94;5108358;27;66733;-44
2023/06/03 04:30:28;;;;;;;11.45;4.18;;;;;;;32.83;71.43;100718.69;5097903;27;70170;-45
2023/06/03 04:32:58;;;;;;;4.13;3.75;;;;;;;32.87;71.24;100719.84;5115946;27;66343;-46
2023/06/03 04:35:32;;;;;;;8.43;2.97;;;;;;;32.99;70.23;100714.44;5100055;27;69761;-46
2023/06/03 04:38:03;;;;;;;10.07;3.67;;;;;;;33.02;70.04;100705.00;5107123;27;66798;-45
2023/06/03 04:40:33;;;;;;;2.65;2.45;;;;;;;33.06;69.96;100711.59;5105341;27;70379;-45
2023/06/03 04:43:05;;;;;;;2.80;2.60;;;;;;;33.00;69.79;100693.53;5104525;27;66481;-45
2023/06/03 04:45:38;;;;;;;3.33;3.03;;;;;;;32.99;69.25;100686.41;5115806;27;69662;-45
2023/06/03 04:48:09;;;;;;;;;;;;;;;32.90;70.07;100716.69;5111864;27;66338;-45
2023/06/03 04:50:43;;;;;;;3.65;3.28;;;;;;;33.12;68.98;100707.91;5101705;27;69968;-44
2023/06/03 04:53:14;;;;;;;3.25;2.95;;;;;;;33.24;68.55;100706.00;5096721;27;66702;-45
2023/06/03 04:55:46;;;;;;;6.82;3.00;;;;;;;33.15;68.63;100680.25;5112811;27;69656;-47
2023/06/03 04:58:22;;;;;;;2.80;2.60;;;;;;;33.30;68.37;100696.88;5108633;27;64623;-47
2023/06/03 05:00:53;;;;;;;4.30;3.30;;;;;;;33.30;67.81;100688.72;5088986;27;69909;-46
2023/06/03 05:03:25;;;;;;;3.95;2.83;;;;;;;33.07;67.94;100640.72;5115028;27;66334;-44
2023/06/03 05:05:57;;;;;;;4.53;2.47;;;;;;;33.15;67.85;100643.06;5110364;27;69670;-44
2023/06/03 05:08:28;;;;;;;4.55;3.50;;;;;;;33.27;68.21;100669.38;5111584;27;65435;-46
2023/06/03 05:10:58;;;;;;;3.55;3.20;;;;;;;33.26;68.64;100671.25;5109775;27;70176;-47
2023/06/03 05:13:30;;;;;;;7.13;3.30;;;;;;;33.16;69.60;100665.63;5101970;27;66038;-45
2023/06/03 05:16:01;;;;;;;;;;;;;;;32.86;67.85;100671.22;5107177;27;70389;-44
2023/06/03 05:18:35;;;;;;;10.30;3.40;;;;;;;32.77;65.70;100657.16;5112446;27;66597;-46
2023/06/03 05:21:06;;;;;;;3.78;3.38;;;;;;;32.04;63.85;100569.72;5109880;27;70590;-45
2023/06/03 05:23:37;;;;;;;17.02;3.30;;;;;;;32.25;62.82;100616.31;5111289;27;65591;-44
2023/06/03 05:26:08;;;;;;;4.65;3.20;;;;;;;32.28;61.96;100637.56;5104681;27;69486;-44
2023/06/03 05:28:39;;;;;;;9.10;2.92;;;;;;;32.22;60.42;100643.94;5107331;27;66136;-46
2023/06/03 05:31:11;;;;;;;7.50;2.47;;;;;;;32.09;59.31;100633.31;5108084;27;70132;-45
2023/06/03 05:33:44;;;;;;;3.77;2.80;;;;;;;32.03;58.13;100632.34;5102047;27;66049;-45
2023/06/03 05:36:18;;;;;;;4.95;2.63;;;;;;;31.87;57.09;100612.13;5112378;27;69589;-42
2023/06/03 05:38:50;;;;;;;8.55;2.42;;;;;;;31.92;56.05;100616.88;5109344;27;65171;-43
2023/06/03 05:41:21;;;;;;;3.05;2.75;;;;;;;31.90;55.16;100638.81;5119039;27;70111;-43
2023/06/03 05:43:54;;;;;;;4.93;2.47;;;;;;;31.82;55.05;100623.69;5109148;27;66182;-43
2023/06/03 05:46:25;;;;;;;2.83;2.30;;;;;;;31.66;53.56;100605.38;5102929;27;70101;-43
2023/06/03 05:48:56;;;;;;;5.30;2.47;;;;;;;31.68;52.63;100605.13;5067864;27;64271;-43
2023/06/03 05:51:27;;;;;;;2.70;2.50;;;;;;;31.73;52.30;100619.66;5112692;27;70663;-43
2023/06/03 05:53:58;;;;;;;2.63;2.42;;;;;;;31.72;51.16;100601.72;5105019;27;66173;-42
2023/06/03 05:56:29;;;;;;;3.42;2.45;;;;;;;31.69;50.31;100590.53;5099954;27;70262;-44
2023/06/03 05:59:00;;;;;;;4.50;2.25;;;;;;;31.68;50.18;100603.25;5102062;27;66253;-43
2023/06/03 06:01:35;;;;;;;2.20;1.80;;;;;;;31.70;49.33;100603.03;5105602;27;70519;-45
2023/06/03 06:04:07;;;;;;;3.42;2.35;;;;;;;31.64;49.48;100591.22;5097845;27;66576;-44
2023/06/03 06:06:38;;;;;;;3.38;2.20;;;;;;;31.64;49.40;100593.94;5107807;27;70290;-43
2023/06/03 06:09:09;;;;;;;3.20;2.60;;;;;;;31.50;48.56;100582.47;5104308;27;66536;-48
2023/06/03 06:11:42;;;;;;;4.17;2.40;;;;;;;31.58;48.45;100595.69;5103893;27;70275;-45
2023/06/03 06:14:13;;;;;;;3.25;2.13;;;;;;;31.55;48.12;100596.16;5106395;27;66244;-42
2023/06/03 06:16:52;;;;;;;2.58;2.20;;;;;;;31.57;47.97;100583.19;5112385;27;70641;-46
2023/06/03 06:19:23;;;;;;;2.53;2.10;;;;;;;31.48;47.72;100579.19;5099933;27;65668;-43
2023/06/03 06:21:56;;;;;;;2.55;2.35;;;;;;;31.54;47.80;100583.66;5107085;27;70085;-44
2023/06/03 06:24:27;;;;;;;5.20;2.53;;;;;;;31.45;47.64;100579.59;5104439;27;67953;-43
2023/06/03 06:26:57;;;;;;;2.90;2.70;;;;;;;31.34;47.54;100545.13;5104267;27;70408;-43
2023/06/03 06:29:28;;;;;;;3.03;2.63;;;;;;;31.59;47.30;100572.09;5105081;27;66818;-46
2023/06/03 06:31:59;;;;;;;2.45;2.22;;;;;;;31.58;46.73;100565.84;5113549;27;70260;-44
2023/06/03 06:34:34;;;;;;;3.40;2.78;;;;;;;31.60;46.55;100566.47;5108018;27;66515;-43
2023/06/03 06:37:09;;;;;;;2.30;2.10;;;;;;;31.65;46.51;100564.91;5104440;27;70143;-44
2023/06/03 06:39:47;;;;;;;3.25;2.28;;;;;;;31.68;46.21;100540.06;5112636;27;66228;-42
2023/06/03 06:42:43;;;;;;;7.32;2.40;;;;;;;31.64;46.33;100526.13;5117231;27;70350;-43
2023/06/03 06:45:25;;;;;;;2.40;2.20;;;;;;;30.94;45.42;100415.72;5109822;27;65275;-45
2023/06/03 06:48:07;;;;;;;2.22;2.03;;;;;;;30.24;44.99;100281.78;5101170;27;70131;-44
2023/06/03 06:51:00;;;;;;;2.70;2.30;;;;;;;31.66;45.10;100515.91;5101093;27;65304;-43
2023/06/03 06:53:35;;;;;;;2.20;1.90;;;;;;;31.49;44.70;100471.56;5091676;27;70185;-44
2023/06/03 06:56:13;;;;;;;2.28;2.17;;;;;;;31.76;44.05;100499.03;5102269;27;66656;-43
2023/06/03 06:58:48;;;;;;;5.28;1.95;;;;;;;31.79;44.03;100491.25;5114626;27;69524;-43
2023/06/03 07:01:19;;;;;;;4.78;2.10;;;;;;;31.77;43.87;100496.09;5106367;27;65563;-44
2023/06/03 07:03:53;;;;;;;4.32;2.17;;;;;;;31.87;44.94;100500.91;5106839;27;70869;-43
2023/06/03 07:06:24;;;;;;;;;;;;;;;31.83;46.23;100500.56;5102416;27;66150;-44
2023/06/03 07:09:00;;;;;;;4.38;1.80;;;;;;;32.09;46.28;100481.34;5109604;27;69780;-46
2023/06/03 07:11:43;;;;;;;3.78;2.38;;;;;;;32.35;47.59;100497.13;5106286;27;65888;-47
2023/06/03 07:14:15;;;;;;;8.95;2.63;;;;;;;32.41;48.33;100466.31;5117351;27;70565;-46
2023/06/03 07:16:48;;;;;;;10.38;2.58;;;;;;;32.63;49.54;100481.97;5103152;27;65429;-43
2023/06/03 07:19:40;;;;;;;7.93;2.38;;;;;;;32.55;50.87;100457.91;5107054;27;69721;-45
2023/06/03 07:22:16;;;;;;;11.07;2.20;;;;;;;32.86;51.12;100497.34;5115823;27;66159;-46
2023/06/03 07:24:47;;;;;;;8.85;2.20;;;;;;;32.83;52.12;100471.50;5106064;27;70094;-43
2023/06/03 07:27:28;;;;;;;8.80;2.50;;;;;;;31.89;55.29;100292.66;5120896;27;65303;-45
2023/06/03 07:30:14;;;;;;;15.20;2.80;;;;;;;33.15;58.47;100460.13;5113084;27;70219;-44
2023/06/03 07:32:46;;;;;;;12.20;2.83;;;;;;;33.23;60.09;100448.00;5100400;27;66064;-46
2023/06/03 07:35:55;;;;;;;7.72;2.88;;;;;;;33.34;61.71;100439.78;5107220;27;69178;-45
2023/06/03 07:38:37;;;;;;;29.90;3.50;;;;;;;33.44;61.76;100432.88;5091557;27;64566;-44
2023/06/03 07:41:28;;;;;;;7.03;2.95;;;;;;;32.91;61.71;100326.28;5111422;27;69568;-42
2023/06/03 07:43:59;;;;;;;4.70;2.97;;;;;;;33.52;62.13;100425.13;5110709;27;66362;-42
2023/06/03 07:46:39;;;;;;;3.72;3.03;;;;;;;33.33;61.70;100408.22;5106974;27;69558;-44
2023/06/03 07:49:12;;;;;;;3.38;2.80;;;;;;;32.99;62.34;100334.03;5099298;27;65288;-44
2023/06/03 07:51:48;;;;;;;3.40;3.00;;;;;;;33.62;62.58;100434.50;5128180;27;69704;-44
2023/06/03 07:54:19;;;;;;;8.18;3.35;;;;;;;33.63;62.81;100419.81;5118426;27;66088;-43
2023/06/03 07:56:50;;;;;;;3.15;2.85;;;;;;;33.56;62.77;100403.69;5112321;27;69969;-45
2023/06/03 07:59:21;;;;;;;3.38;2.90;;;;;;;33.43;63.00;100372.19;5113443;27;66315;-44
2023/06/03 08:01:53;;;;;;;4.93;3.08;;;;;;;33.52;62.91;100397.94;5107406;27;70522;-43
2023/06/03 08:04:32;;;;;;;5.72;2.83;;;;;;;33.30;62.81;100346.22;5115739;27;66930;-44
2023/06/03 08:07:05;;;;;;;2.72;2.53;;;;;;;33.54;62.16;100367.75;5104707;27;69390;-44
2023/06/03 08:09:37;;;;;;;6.35;2.42;;;;;;;33.80;61.48;100394.25;5113198;27;66737;-42
2023/06/03 08:12:09;;;;;;;3.35;2.35;;;;;;;33.86;61.70;100403.31;5115742;27;70603;-42
2023/06/03 08:14:40;;;;;;;2.80;2.45;;;;;;;33.94;61.43;100393.88;5113685;27;66339;-43
2023/06/03 08:17:14;;;;;;;3.03;2.67;;;;;;;33.86;61.29;100375.28;5115003;27;69864;-45
2023/06/03 08:19:46;;;;;;;7.32;2.60;;;;;;;34.04;61.82;100402.16;5106697;27;67189;-43
2023/06/03 08:22:45;;;;;;;;;;;;;;;34.01;61.81;100427.16;5117298;27;70447;-47
2023/06/03 08:25:16;;;;;;;4.22;2.45;;;;;;;34.26;60.51;100423.97;5105683;27;67231;-45
2023/06/03 08:27:49;;;;;;;3.83;2.83;;;;;;;34.31;60.25;100425.94;5109710;27;70614;-44
2023/06/03 08:30:20;;;;;;;;;;;;;;;34.13;60.82;100444.22;5114573;27;65309;-45
2023/06/03 08:32:51;;;;;;;6.78;2.80;;;;;;;34.34;60.30;100441.75;5114981;27;69846;-45
2023/06/03 08:35:22;;;;;;;7.07;3.00;;;;;;;34.41;59.70;100453.28;5111233;27;65944;-43
2023/06/03 08:37:53;;;;;;;8.27;3.65;;;;;;;34.47;60.27;100463.16;5109430;27;70418;-41
2023/06/03 08:40:25;;;;;;;31.65;7.63;;;;;;;34.34;60.95;100428.13;5106140;27;65906;-43
2023/06/03 08:43:03;;;;;;;36.78;8.77;;;;;;;34.30;61.68;100416.94;5107393;27;69261;-46
2023/06/03 08:46:01;;;;;;;28.85;10.23;;;;;;;34.44;61.48;100458.22;5114695;27;66537;-41
2023/06/03 08:48:40;;;;;;;27.30;10.23;;;;;;;34.40;62.37;100490.56;5099602;27;70631;-44
2023/06/03 08:51:13;;;;;;;28.15;10.68;;;;;;;34.31;63.26;100461.31;5108895;27;65960;-43
2023/06/03 08:53:51;;;;;;;16.20;9.73;;;;;;;34.03;62.55;100435.91;5103879;27;69882;-46
2023/06/03 08:56:25;;;;;;;15.10;10.05;;;;;;;34.24;62.04;100451.44;5115665;27;65812;-45
2023/06/03 08:59:05;;;;;;;13.20;11.07;;;;;;;34.21;62.29;100449.25;5111766;27;71122;-48
2023/06/03 09:01:40;;;;;;;15.77;10.38;;;;;;;34.10;61.86;100427.56;5113147;27;66591;-47
2023/06/03 09:04:14;;;;;;;12.82;9.43;;;;;;;34.19;61.98;100440.50;5134129;27;69874;-45
2023/06/03 09:06:49;;;;;;;17.75;10.38;;;;;;;33.93;62.86;100382.16;5107731;27;65020;-43
2023/06/03 09:09:23;;;;;;;24.33;11.05;;;;;;;33.38;63.46;100310.44;5111313;27;70392;-47
2023/06/03 09:11:56;;;;;;;16.75;10.40;;;;;;;33.33;63.46;100299.50;5114386;27;65715;-46
2023/06/03 09:14:27;;;;;;;15.32;9.95;;;;;;;34.14;63.41;100445.88;5103185;27;70199;-44
2023/06/03 09:17:00;;;;;;;14.88;10.05;;;;;;;34.19;63.87;100451.38;5102197;27;66932;-43
2023/06/03 09:19:31;;;;;;;17.20;10.23;;;;;;;34.13;64.30;100452.41;5107151;27;70455;-44
2023/06/03 09:22:03;;;;;;;23.83;10.05;;;;;;;34.17;64.24;100445.34;5110954;27;66314;-44
2023/06/03 09:24:34;;;;;;;31.25;11.18;;;;;;;34.20;64.96;100442.13;5102143;27;70064;-44
2023/06/03 09:27:05;;;;;;;15.93;10.20;;;;;;;34.07;65.08;100418.00;5107964;27;65471;-45
2023/06/03 09:29:36;;;;;;;18.98;10.70;;;;;;;33.98;64.97;100414.88;5118369;27;69866;-43
2023/06/03 09:32:08;;;;;;;12.77;9.38;;;;;;;34.17;64.78;100441.81;5105538;27;65749;-43
2023/06/03 09:34:39;;;;;;;17.50;10.25;;;;;;;34.19;65.02;100456.81;5109818;27;69686;-46
2023/06/03 09:37:10;;;;;;;16.45;10.25;;;;;;;34.20;65.21;100463.91;5109514;27;65697;-45
2023/06/03 09:39:41;;;;;;;20.38;9.57;;;;;;;34.09;65.37;100434.09;5109373;27;69778;-47
2023/06/03 09:42:12;;;;;;;13.60;9.40;;;;;;;34.25;65.41;100460.44;5108014;27;65335;-45
2023/06/03 09:44:55;;;;;;;16.17;9.68;;;;;;;34.24;65.37;100462.34;5110418;27;69295;-43
2023/06/03 09:47:35;;;;;;;13.88;9.45;;;;;;;34.29;65.34;100444.41;5111292;27;66394;-44
2023/06/03 09:50:08;;;;;;;9.38;7.22;;;;;;;34.30;64.19;100421.53;5105419;27;70199;-44
2023/06/03 09:52:38;;;;;;;10.95;6.85;;;;;;;34.56;63.95;100460.81;5116051;27;65680;-45
2023/06/03 09:55:42;;;;;;;12.27;6.75;;;;;;;34.23;63.59;100403.50;5105793;27;69677;-44
2023/06/03 09:58:13;;;;;;;9.45;7.88;;;;;;;34.65;63.90;100470.19;5096746;27;66524;-44
2023/06/03 10:00:49;;;;;;;16.35;8.65;;;;;;;34.70;63.46;100467.50;5107688;27;68814;-44
2023/06/03 10:04:05;;;;;;;19.63;9.27;;;;;;;34.58;63.60;100459.50;5108413;27;65758;-44
2023/06/03 10:06:36;;;;;;;33.20;12.90;;;;;;;34.61;65.18;100477.22;5112854;27;69632;-42
2023/06/03 10:09:26;;;;;;;21.00;12.90;;;;;;;33.72;66.07;100353.88;5108914;27;66462;-44
2023/06/03 10:11:56;;;;;;;21.63;11.02;;;;;;;34.50;65.37;100473.53;5105454;27;70634;-46
2023/06/03 10:14:30;;;;;;;16.70;10.13;;;;;;;34.08;64.54;100391.63;5108783;27;65891;-44
2023/06/03 10:17:08;;;;;;;12.77;10.07;;;;;;;34.67;64.37;100493.34;5110636;27;69229;-44
2023/06/03 10:19:41;;;;;;;19.27;10.82;;;;;;;34.43;64.16;100449.19;5113237;27;65326;-45
2023/06/03 10:22:15;;;;;;;17.58;10.65;;;;;;;34.77;63.76;100508.16;5106140;27;70312;-44
2023/06/03 10:24:48;;;;;;;20.67;10.85;;;;;;;34.78;63.98;100528.91;5120569;27;66328;-45
2023/06/03 10:27:19;;;;;;;19.02;12.65;;;;;;;34.62;63.63;100531.44;5105924;27;70880;-45
2023/06/03 10:29:56;;;;;;;21.03;13.47;;;;;;;34.57;63.67;100538.72;5099287;27;66134;-46
2023/06/03 10:32:27;;;;;;;27.48;15.38;;;;;;;34.47;64.60;100534.78;5112266;27;69621;-44
2023/06/03 10:34:59;;;;;;;;;;;;;;;34.21;65.54;100528.19;5104919;27;65623;-45
2023/06/03 10:37:32;;;;;;;26.02;16.10;;;;;;;33.65;65.27;100418.50;5108822;27;70613;-45
2023/06/03 10:40:04;;;;;;;25.30;16.10;;;;;;;34.16;64.68;100491.91;5111318;27;66594;-46
2023/06/03 10:42:35;;;;;;;21.85;14.82;;;;;;;34.21;65.22;100503.69;5106072;27;70790;-45
2023/06/03 10:45:07;;;;;;;26.27;15.37;;;;;;;34.15;65.35;100496.50;5106133;27;67275;-44
2023/06/03 10:47:40;;;;;;;19.45;15.40;;;;;;;34.13;65.45;100501.41;5105964;27;68730;-44
2023/06/03 10:50:32;;;;;;;30.45;15.27;;;;;;;34.08;65.29;100490.44;5111757;27;66039;-44
2023/06/03 10:53:28;;;;;;;34.83;15.87;;;;;;;34.08;65.07;100474.09;5115342;27;70055;-43
2023/06/03 10:56:01;;;;;;;24.15;15.18;;;;;;;34.05;65.39;100488.22;5108381;27;65955;-44
2023/06/03 10:58:32;;;;;;;21.00;15.95;;;;;;;33.98;65.84;100492.97;5111976;27;70838;-42
2023/06/03 11:01:04;;;;;;;33.13;15.98;;;;;;;34.01;65.80;100503.34;5107340;27;65756;-44
2023/06/03 11:03:59;;;;;;;24.63;15.68;;;;;;;33.94;65.70;100505.44;5106303;27;69827;-43
2023/06/03 11:06:30;;;;;;;19.08;14.23;;;;;;;33.98;65.88;100510.13;5110698;27;66538;-43
2023/06/03 11:09:12;;;;;;;32.10;15.27;;;;;;;33.33;65.66;100413.66;5110096;27;69429;-44
2023/06/03 11:11:55;;;;;;;22.75;15.90;;;;;;;33.93;65.65;100507.31;5113007;27;66227;-41
2023/06/03 11:14:26;;;;;;;26.38;14.82;;;;;;;33.89;66.17;100511.63;5111681;27;69327;-43
2023/06/03 11:16:59;;;;;;;23.63;15.20;;;;;;;33.88;66.85;100520.88;5116567;27;66239;-43
2023/06/03 11:19:32;;;;;;;27.55;15.75;;;;;;;33.90;66.86;100528.78;5111218;27;69848;-44
2023/06/03 11:22:07;;;;;;;28.52;18.20;;;;;;;33.65;66.64;100488.41;5119312;27;66096;-46
2023/06/03 11:24:43;;;;;;;23.20;18.15;;;;;;;33.85;66.55;100537.69;5106313;27;69920;-46
2023/06/03 11:27:20;;;;;;;31.67;17.80;;;;;;;33.79;65.98;100539.53;5111382;27;65894;-46
2023/06/03 11:29:57;;;;;;;30.60;19.13;;;;;;;33.75;66.20;100538.34;5107192;27;70567;-44
2023/06/03 11:32:33;;;;;;;32.15;18.27;;;;;;;33.77;65.93;100540.84;5118155;27;66264;-45
2023/06/03 11:35:04;;;;;;;31.45;17.60;;;;;;;33.75;66.17;100542.97;5117628;27;69673;-46
2023/06/03 11:37:41;;;;;;;26.52;16.98;;;;;;;33.74;66.56;100558.47;5105748;27;65890;-45
2023/06/03 11:40:20;;;;;;;27.33;16.80;;;;;;;33.74;66.84;100585.69;5113012;27;69754;-44
2023/06/03 11:42:50;;;;;;;36.83;18.75;;;;;;;33.71;66.32;100575.31;5111651;27;65927;-44
2023/06/03 11:45:28;;;;;;;24.63;16.90;;;;;;;33.69;66.36;100582.88;5113916;27;69223;-45
2023/06/03 11:48:08;;;;;;;21.58;17.55;;;;;;;33.28;67.08;100552.22;5109911;27;65294;-45
2023/06/03 11:50:53;;;;;;;29.48;17.88;;;;;;;33.70;67.41;100595.38;5113453;27;69947;-46
2023/06/03 11:53:35;;;;;;;31.77;17.30;;;;;;;33.27;67.89;100536.16;5116707;27;66741;-45
2023/06/03 11:56:08;;;;;;;21.45;17.23;;;;;;;33.66;67.78;100605.13;5118274;27;69930;-46
2023/06/03 11:58:52;;;;;;;27.67;16.92;;;;;;;33.48;68.34;100597.16;5111868;27;66574;-43